Time;durP1;ratioP1;P1;durP2;ratioP2;P2;SDS_P1;SDS_P2;PMS_P1;PMS_P2;Temp;Humidity;BMP_temperature;BMP_pressure;BME280_temperature;BME280_humidity;BME280_pressure;Samples;Min_cycle;Max_cycle;Signal;HPM_P1;HPM_P2
2023/09/09 00:00:52;;;;;;;14.73;9.60;;;18.60;99.90;;;;;;4861506;29;20967;-83
2023/09/09 00:03:18;;;;;;;10.40;9.30;;;18.50;99.90;;;;;;4862724;29;20180;-82
2023/09/09 00:05:44;;;;;;;11.43;8.67;;;18.50;99.90;;;;;;4862695;29;20472;-83
2023/09/09 00:08:10;;;;;;;9.50;8.60;;;18.50;99.90;;;;;;4862763;29;20477;-83
2023/09/09 00:10:37;;;;;;;10.80;9.27;;;18.50;99.90;;;;;;4861718;29;20181;-83
2023/09/09 00:13:06;;;;;;;10.40;8.40;;;18.40;99.90;;;;;;4861539;29;20196;-83
2023/09/09 00:15:33;;;;;;;9.50;8.67;;;18.30;99.90;;;;;;4862505;29;20425;-83
2023/09/09 00:17:59;;;;;;;11.10;10.00;;;18.30;99.90;;;;;;4861282;29;20447;-83
2023/09/09 00:20:36;;;;;;;12.10;10.20;;;18.30;99.90;;;;;;4862310;29;20580;-83
2023/09/09 00:23:09;;;;;;;13.87;9.30;;;18.30;99.90;;;;;;4861290;29;20441;-83
2023/09/09 00:25:35;;;;;;;10.13;8.43;;;18.20;99.90;;;;;;4862529;29;20894;-83
2023/09/09 00:28:01;;;;;;;10.27;9.27;;;18.20;99.90;;;;;;4861952;29;20475;-83
2023/09/09 00:30:27;;;;;;;10.83;9.47;;;18.20;99.90;;;;;;4862084;29;20921;-83
2023/09/09 00:32:53;;;;;;;10.43;9.40;;;18.20;99.90;;;;;;4845615;29;20784;-83
2023/09/09 00:35:18;;;;;;;11.50;10.40;;;18.20;99.90;;;;;;4862098;29;20407;-83
2023/09/09 00:37:44;;;;;;;10.47;9.53;;;18.20;99.90;;;;;;4861955;29;20240;-84
2023/09/09 00:40:11;;;;;;;11.57;9.90;;;18.20;99.90;;;;;;4862198;29;20184;-83
2023/09/09 00:42:37;;;;;;;10.97;9.83;;;18.20;99.90;;;;;;4860907;29;20196;-83
2023/09/09 00:45:03;;;;;;;9.70;8.80;;;18.30;99.90;;;;;;4861722;29;20941;-83
2023/09/09 00:47:29;;;;;;;11.90;9.50;;;18.30;99.90;;;;;;4861909;29;20212;-83
2023/09/09 00:49:54;;;;;;;12.83;10.17;;;18.20;99.90;;;;;;4861572;29;20421;-83
2023/09/09 00:52:20;;;;;;;13.93;9.87;;;18.10;99.90;;;;;;4862087;29;20422;-83
2023/09/09 00:54:47;;;;;;;10.50;9.50;;;18.00;99.90;;;;;;4862115;29;20176;-84
2023/09/09 00:57:15;;;;;;;11.90;9.50;;;17.90;99.90;;;;;;4861726;29;20564;-83
2023/09/09 00:59:40;;;;;;;10.10;9.03;;;17.90;99.90;;;;;;4860617;29;20838;-83
2023/09/09 01:02:06;;;;;;;10.20;9.17;;;17.90;99.90;;;;;;4861585;29;20468;-84
2023/09/09 01:04:32;;;;;;;12.80;10.00;;;17.80;99.90;;;;;;4861518;29;20316;-83
2023/09/09 01:07:01;;;;;;;10.00;9.10;;;17.80;99.90;;;;;;4861701;29;20196;-83
2023/09/09 01:09:27;;;;;;;15.83;9.43;;;17.80;99.90;;;;;;4861992;29;20180;-83
2023/09/09 01:11:53;;;;;;;11.10;9.90;;;17.80;99.90;;;;;;4861676;29;20488;-83
2023/09/09 01:14:18;;;;;;;12.37;11.00;;;17.80;99.90;;;;;;4861950;29;20876;-83
2023/09/09 01:16:46;;;;;;;10.67;9.67;;;17.70;99.90;;;;;;4860552;29;20472;-83
2023/09/09 01:19:15;;;;;;;11.60;10.60;;;17.70;99.90;;;;;;4860758;29;20200;-83
2023/09/09 01:21:43;;;;;;;14.23;10.23;;;17.60;99.90;;;;;;4861945;29;20512;-82
2023/09/09 01:24:13;;;;;;;11.87;10.77;;;17.60;99.90;;;;;;4861494;29;20417;-83
2023/09/09 01:26:39;;;;;;;11.27;9.80;;;17.60;99.90;;;;;;4861682;29;20437;-83
2023/09/09 01:29:05;;;;;;;13.10;10.50;;;17.50;99.90;;;;;;4861491;29;20953;-83
2023/09/09 01:31:31;;;;;;;16.13;11.20;;;17.40;99.90;;;;;;4861323;29;20184;-83
2023/09/09 01:33:57;;;;;;;12.43;10.27;;;17.40;99.90;;;;;;4863372;29;20182;-83
2023/09/09 01:36:23;;;;;;;13.20;11.07;;;17.40;99.90;;;;;;4865253;29;20564;-83
2023/09/09 01:38:48;;;;;;;10.73;9.63;;;17.30;99.90;;;;;;4864092;29;20402;-84
2023/09/09 01:41:14;;;;;;;13.20;9.70;;;17.30;99.90;;;;;;4864245;29;20196;-83
2023/09/09 01:43:40;;;;;;;11.80;8.80;;;17.20;99.90;;;;;;4864076;29;20208;-83
2023/09/09 01:46:05;;;;;;;10.93;9.90;;;17.20;99.90;;;;;;4863885;29;20192;-83
2023/09/09 01:48:31;;;;;;;11.80;10.60;;;17.20;99.90;;;;;;4864304;29;20207;-83
2023/09/09 01:50:56;;;;;;;14.43;11.60;;;17.20;99.90;;;;;;4865034;29;20226;-83
2023/09/09 01:53:22;;;;;;;11.03;9.90;;;17.10;99.90;;;;;;4865181;29;20554;-83
2023/09/09 01:55:47;;;;;;;11.90;10.70;;;17.10;99.90;;;;;;4863848;29;20271;-85
2023/09/09 01:58:15;;;;;;;10.70;9.60;;;17.10;99.90;;;;;;4865169;29;20184;-83
2023/09/09 02:00:41;;;;;;;11.97;10.77;;;17.00;99.90;;;;;;4864867;29;20187;-83
2023/09/09 02:03:07;;;;;;;13.30;11.80;;;17.00;99.90;;;;;;4864716;29;20429;-83
2023/09/09 02:05:33;;;;;;;15.57;11.80;;;17.00;99.90;;;;;;4865040;29;20463;-83
2023/09/09 02:07:59;;;;;;;14.70;11.67;;;17.00;99.90;;;;;;4864549;29;20956;-83
2023/09/09 02:10:24;;;;;;;14.83;12.77;;;17.00;99.90;;;;;;4865312;29;20626;-83
2023/09/09 02:12:50;;;;;;;12.03;10.63;;;17.00;99.90;;;;;;4864810;29;20186;-83
2023/09/09 02:15:16;;;;;;;11.70;10.50;;;16.90;99.90;;;;;;4864572;29;20213;-83
2023/09/09 02:17:42;;;;;;;15.83;10.87;;;16.90;99.90;;;;;;4864801;29;20224;-83
2023/09/09 02:20:08;;;;;;;11.67;10.50;;;16.80;99.90;;;;;;4863591;29;20908;-83
2023/09/09 02:22:33;;;;;;;13.70;11.27;;;16.80;99.90;;;;;;4864600;29;20199;-83
2023/09/09 02:24:59;;;;;;;12.17;10.97;;;16.70;99.90;;;;;;4862968;29;20784;-83
2023/09/09 02:27:25;;;;;;;13.53;11.57;;;16.70;99.90;;;;;;4864342;29;20193;-84
2023/09/09 02:29:51;;;;;;;12.07;10.87;;;16.70;99.90;;;;;;4862989;29;20188;-85
2023/09/09 02:32:17;;;;;;;12.27;11.17;;;16.70;99.90;;;;;;4864729;29;20191;-84
2023/09/09 02:34:43;;;;;;;12.50;11.20;;;16.60;99.90;;;;;;4863089;29;20902;-84
2023/09/09 02:37:22;;;;;;;11.80;10.70;;;16.60;99.90;;;;;;4864256;29;20450;-84
2023/09/09 02:39:49;;;;;;;10.57;9.60;;;16.60;99.90;;;;;;4864342;29;20666;-84
2023/09/09 02:42:21;;;;;;;11.13;9.70;;;16.60;99.90;;;;;;4864066;29;20425;-84
2023/09/09 02:44:46;;;;;;;16.30;11.10;;;16.50;99.90;;;;;;4863402;29;20401;-84
2023/09/09 02:47:13;;;;;;;13.37;10.40;;;16.50;99.90;;;;;;4862910;29;20945;-84
2023/09/09 02:49:39;;;;;;;11.77;10.20;;;16.50;99.90;;;;;;4864169;29;20706;-84
2023/09/09 02:52:06;;;;;;;11.13;10.10;;;16.50;99.90;;;;;;4864024;29;20444;-84
2023/09/09 02:54:35;;;;;;;12.47;11.20;;;16.40;99.90;;;;;;4864279;29;20434;-84
2023/09/09 02:57:03;;;;;;;11.03;9.90;;;16.40;99.90;;;;;;4863671;29;20495;-84
2023/09/09 02:59:35;;;;;;;13.27;10.07;;;16.40;99.90;;;;;;4863923;29;20412;-85
2023/09/09 03:02:01;;;;;;;11.50;10.37;;;16.40;99.90;;;;;;4864053;29;20898;-85
2023/09/09 03:04:27;;;;;;;11.40;10.20;;;16.30;99.90;;;;;;4863815;29;20479;-84
2023/09/09 03:06:52;;;;;;;10.80;9.70;;;16.30;99.90;;;;;;4862866;29;20213;-85
2023/09/09 03:09:18;;;;;;;11.33;10.27;;;16.30;99.90;;;;;;4862728;29;20617;-84
2023/09/09 03:11:43;;;;;;;11.77;10.57;;;16.30;99.90;;;;;;4862859;29;20216;-84
2023/09/09 03:14:09;;;;;;;13.13;11.00;;;16.30;99.90;;;;;;4863505;29;20244;-84
2023/09/09 03:16:36;;;;;;;11.77;10.50;;;16.30;99.90;;;;;;4863532;29;20244;-84
2023/09/09 03:19:02;;;;;;;12.60;11.30;;;16.30;99.90;;;;;;4863388;29;20425;-85
2023/09/09 03:21:28;;;;;;;11.80;10.30;;;16.30;99.90;;;;;;4862530;29;20858;-84
2023/09/09 03:23:53;;;;;;;13.07;10.90;;;16.20;99.90;;;;;;4863287;29;20192;-85
2023/09/09 03:26:19;;;;;;;15.00;11.03;;;16.20;99.90;;;;;;4863636;29;20285;-84
2023/09/09 03:28:48;;;;;;;12.60;11.47;;;16.30;99.90;;;;;;4863859;29;20660;-84
2023/09/09 03:31:14;;;;;;;12.43;10.80;;;16.20;99.90;;;;;;4864837;29;20538;-85
2023/09/09 03:33:40;;;;;;;12.00;10.80;;;16.20;99.90;;;;;;4865601;29;20424;-82
2023/09/09 03:36:06;;;;;;;12.80;10.77;;;16.30;99.90;;;;;;4865892;29;20236;-85
2023/09/09 03:38:32;;;;;;;15.07;11.50;;;16.30;99.90;;;;;;4863490;29;20394;-84
2023/09/09 03:40:58;;;;;;;13.63;12.10;;;16.20;99.90;;;;;;4863647;29;20910;-84
2023/09/09 03:43:23;;;;;;;12.33;11.03;;;16.10;99.90;;;;;;4863436;29;20184;-84
2023/09/09 03:45:56;;;;;;;15.00;11.33;;;16.10;99.90;;;;;;4862312;29;20192;-85
2023/09/09 03:48:22;;;;;;;13.87;11.60;;;16.10;99.90;;;;;;4861912;29;20187;-84
2023/09/09 03:50:48;;;;;;;13.40;11.63;;;16.00;99.90;;;;;;4862951;29;20469;-84
2023/09/09 03:53:13;;;;;;;11.87;10.67;;;16.00;99.90;;;;;;4862627;29;20416;-85
2023/09/09 03:55:39;;;;;;;15.23;12.40;;;16.00;99.90;;;;;;4862685;29;20184;-85
2023/09/09 03:58:04;;;;;;;16.43;12.10;;;16.00;99.90;;;;;;4862829;29;20231;-85
2023/09/09 04:00:30;;;;;;;15.57;12.10;;;16.00;99.90;;;;;;4861654;29;20192;-84
2023/09/09 04:02:56;;;;;;;15.67;12.63;;;15.90;99.90;;;;;;4862486;29;20189;-85
2023/09/09 04:05:22;;;;;;;15.07;11.73;;;15.90;99.90;;;;;;4862743;29;20224;-84
2023/09/09 04:07:48;;;;;;;14.30;12.47;;;15.90;99.90;;;;;;4862849;29;20188;-85
2023/09/09 04:10:14;;;;;;;14.37;11.90;;;15.80;99.90;;;;;;4862662;29;20499;-85
2023/09/09 04:12:39;;;;;;;14.40;11.93;;;15.90;99.90;;;;;;4861395;29;20199;-85
2023/09/09 04:15:06;;;;;;;13.67;12.27;;;15.80;99.90;;;;;;4861166;29;20188;-85
2023/09/09 04:17:32;;;;;;;15.73;12.37;;;15.80;99.90;;;;;;4862191;29;20299;-84
2023/09/09 04:19:57;;;;;;;12.53;11.30;;;15.80;99.90;;;;;;4862475;29;20429;-85
2023/09/09 04:22:23;;;;;;;13.00;11.70;;;15.80;99.90;;;;;;4862651;29;20188;-85
2023/09/09 04:24:49;;;;;;;12.93;11.63;;;15.80;99.90;;;;;;4862643;29;20203;-82
2023/09/09 04:27:14;;;;;;;13.60;12.27;;;15.80;99.90;;;;;;4861106;29;20456;-82
2023/09/09 04:29:40;;;;;;;17.13;13.30;;;15.80;99.90;;;;;;4862694;29;20275;-82
2023/09/09 04:32:06;;;;;;;15.47;13.60;;;15.80;99.90;;;;;;4860857;29;20219;-83
2023/09/09 04:34:32;;;;;;;14.43;12.93;;;15.80;99.90;;;;;;4862270;29;20452;-83
2023/09/09 04:36:57;;;;;;;14.53;13.03;;;15.70;99.90;;;;;;4862410;29;20724;-84
2023/09/09 04:39:23;;;;;;;18.80;13.90;;;15.80;99.90;;;;;;4862191;29;20196;-83
2023/09/09 04:41:48;;;;;;;16.50;14.67;;;15.70;99.90;;;;;;4861361;29;20184;-82
2023/09/09 04:44:14;;;;;;;15.57;13.97;;;15.70;99.90;;;;;;4860963;29;20219;-83
2023/09/09 04:46:40;;;;;;;15.60;13.93;;;15.70;99.90;;;;;;4862297;29;20282;-83
2023/09/09 04:49:05;;;;;;;16.27;13.20;;;15.70;99.90;;;;;;4861994;29;20189;-83
2023/09/09 04:51:31;;;;;;;14.00;12.60;;;15.60;99.90;;;;;;4862010;29;20192;-82
2023/09/09 04:53:57;;;;;;;15.30;13.30;;;15.60;99.90;;;;;;4862302;29;20774;-82
2023/09/09 04:56:23;;;;;;;13.30;11.50;;;15.60;99.90;;;;;;4861825;29;20733;-83
2023/09/09 04:58:49;;;;;;;13.10;11.73;;;15.50;99.90;;;;;;4862345;29;20478;-82
2023/09/09 05:01:15;;;;;;;14.07;12.70;;;15.50;99.90;;;;;;4860741;29;20974;-82
2023/09/09 05:03:40;;;;;;;17.40;14.30;;;15.50;99.90;;;;;;4862105;29;20566;-83
2023/09/09 05:06:07;;;;;;;15.20;13.60;;;15.70;99.90;;;;;;4860157;29;20275;-82
2023/09/09 05:08:32;;;;;;;17.00;15.20;;;15.60;99.90;;;;;;4861307;29;20287;-82
2023/09/09 05:10:58;;;;;;;16.33;13.20;;;15.60;99.90;;;;;;4862343;29;20925;-82
2023/09/09 05:13:23;;;;;;;18.37;15.70;;;15.60;99.90;;;;;;4861779;29;20180;-82
2023/09/09 05:15:51;;;;;;;17.07;14.90;;;15.60;99.90;;;;;;4861862;29;20181;-82
2023/09/09 05:18:16;;;;;;;16.50;14.73;;;15.60;99.90;;;;;;4860461;29;20192;-83
2023/09/09 05:20:43;;;;;;;16.63;14.67;;;15.50;99.90;;;;;;4861639;29;20500;-82
2023/09/09 05:23:08;;;;;;;15.83;14.13;;;15.50;99.90;;;;;;4861905;29;20184;-82
2023/09/09 05:25:34;;;;;;;15.80;14.20;;;15.50;99.90;;;;;;4861840;29;20421;-82
2023/09/09 05:28:00;;;;;;;16.57;14.50;;;15.50;99.90;;;;;;4861750;29;20311;-82
2023/09/09 05:30:26;;;;;;;19.80;15.10;;;15.50;99.90;;;;;;4861589;29;20200;-82
2023/09/09 05:32:51;;;;;;;18.50;16.10;;;15.50;99.90;;;;;;4861467;29;20792;-82
2023/09/09 05:35:17;;;;;;;18.77;15.50;;;15.50;99.90;;;;;;4861275;29;20183;-82
2023/09/09 05:37:43;;;;;;;16.23;14.60;;;15.60;99.90;;;;;;4861820;29;20219;-82
2023/09/09 05:40:09;;;;;;;17.90;14.87;;;15.70;99.90;;;;;;4861428;29;20257;-82
2023/09/09 05:42:34;;;;;;;17.20;15.40;;;15.60;99.90;;;;;;4861816;29;20176;-82
2023/09/09 05:45:01;;;;;;;19.27;15.70;;;15.70;99.90;;;;;;4860615;29;20445;-82
2023/09/09 05:47:27;;;;;;;17.83;15.53;;;15.70;99.90;;;;;;4860527;29;20563;-82
2023/09/09 05:49:52;;;;;;;20.17;16.17;;;15.70;99.90;;;;;;4861381;29;20463;-82
2023/09/09 05:52:18;;;;;;;17.93;15.43;;;15.80;99.90;;;;;;4861532;29;20486;-82
2023/09/09 05:54:44;;;;;;;17.57;15.87;;;15.80;99.90;;;;;;4860466;29;20191;-82
2023/09/09 05:57:09;;;;;;;17.57;15.83;;;15.90;99.90;;;;;;4861270;29;20228;-82
2023/09/09 05:59:35;;;;;;;15.87;14.17;;;15.90;99.90;;;;;;4860769;29;20200;-82
2023/09/09 06:02:01;;;;;;;17.57;15.83;;;15.90;99.90;;;;;;4861761;29;20271;-82
2023/09/09 06:04:27;;;;;;;17.27;14.23;;;16.00;99.90;;;;;;4861075;29;20239;-82
2023/09/09 06:06:52;;;;;;;18.10;14.50;;;16.00;99.90;;;;;;4861693;29;20196;-82
2023/09/09 06:09:18;;;;;;;16.27;14.80;;;16.10;99.90;;;;;;4861554;29;20396;-82
2023/09/09 06:11:43;;;;;;;15.07;13.73;;;16.20;99.90;;;;;;4861974;29;20181;-82
2023/09/09 06:14:09;;;;;;;14.53;12.90;;;16.20;99.90;;;;;;4861765;29;20185;-82
2023/09/09 06:16:35;;;;;;;15.27;13.67;;;16.30;99.90;;;;;;4861938;29;20584;-82
2023/09/09 06:19:00;;;;;;;14.93;13.47;;;16.40;99.90;;;;;;4861735;29;20278;-82
2023/09/09 06:21:26;;;;;;;17.70;14.60;;;16.50;99.90;;;;;;4863624;29;20185;-82
2023/09/09 06:23:52;;;;;;;18.70;14.47;;;16.50;99.90;;;;;;4863950;29;20196;-82
2023/09/09 06:26:17;;;;;;;14.73;13.33;;;16.60;99.90;;;;;;4863542;29;20200;-82
2023/09/09 06:28:43;;;;;;;19.90;14.77;;;16.70;99.90;;;;;;4863822;29;20195;-82
2023/09/09 06:31:08;;;;;;;16.00;13.90;;;16.80;99.90;;;;;;4864650;29;20662;-82
2023/09/09 06:33:34;;;;;;;15.27;13.70;;;16.90;99.90;;;;;;4864889;29;20188;-83
2023/09/09 06:36:00;;;;;;;16.97;14.77;;;16.90;99.90;;;;;;4863675;29;20275;-82
2023/09/09 06:38:25;;;;;;;16.80;15.10;;;17.20;99.90;;;;;;4864461;29;20645;-82
2023/09/09 06:40:51;;;;;;;16.23;14.57;;;17.40;99.90;;;;;;4864538;29;20228;-82
2023/09/09 06:43:19;;;;;;;18.30;15.67;;;17.40;99.90;;;;;;4864151;29;20184;-88
2023/09/09 06:45:45;;;;;;;17.00;15.27;;;17.50;99.90;;;;;;4864367;29;20183;-88
2023/09/09 06:48:10;;;;;;;20.13;15.87;;;17.60;99.90;;;;;;4862711;29;20417;-88
2023/09/09 06:50:36;;;;;;;17.70;15.70;;;17.80;99.90;;;;;;4864738;29;20188;-88
2023/09/09 06:53:02;;;;;;;16.00;14.37;;;17.90;99.90;;;;;;4863274;29;20226;-88
2023/09/09 06:55:29;;;;;;;17.80;16.10;;;18.00;99.90;;;;;;4863828;29;20290;-88
2023/09/09 06:57:54;;;;;;;22.90;15.10;;;18.10;99.90;;;;;;4863990;29;20547;-88
2023/09/09 07:00:20;;;;;;;16.63;14.93;;;18.20;99.90;;;;;;4862777;29;20433;-88
2023/09/09 07:02:46;;;;;;;16.07;14.07;;;18.30;99.90;;;;;;4863117;29;20260;-88
2023/09/09 07:05:16;;;;;;;16.90;15.07;;;18.50;99.90;;;;;;4862536;29;20236;-88
2023/09/09 07:07:42;;;;;;;18.57;13.83;;;18.70;99.90;;;;;;4863850;29;20195;-88
2023/09/09 07:10:08;;;;;;;13.50;12.20;;;18.80;99.90;;;;;;4864027;29;20918;-88
2023/09/09 07:12:34;;;;;;;13.80;12.40;;;18.90;99.90;;;;;;4863715;29;20485;-88
2023/09/09 07:14:59;;;;;;;16.40;12.50;;;19.00;99.90;;;;;;4863652;29;20425;-88
2023/09/09 07:17:25;;;;;;;15.90;13.53;;;19.00;99.90;;;;;;4862261;29;20208;-88
2023/09/09 07:19:51;;;;;;;13.37;12.07;;;19.10;99.90;;;;;;4862532;29;20219;-88
2023/09/09 07:22:16;;;;;;;15.10;12.90;;;19.10;99.90;;;;;;4863323;29;20188;-88
2023/09/09 07:24:42;;;;;;;14.13;12.63;;;19.10;99.90;;;;;;4863674;29;20630;-88
2023/09/09 07:27:07;;;;;;;15.73;11.60;;;19.30;99.90;;;;;;4862152;29;20196;-88
2023/09/09 07:29:33;;;;;;;13.20;11.90;;;19.30;99.90;;;;;;4862202;29;20660;-88
2023/09/09 07:31:59;;;;;;;12.73;11.43;;;19.50;99.90;;;;;;4846270;29;20244;-88
2023/09/09 07:34:25;;;;;;;17.80;12.53;;;19.70;99.90;;;;;;4861711;29;20425;-88
2023/09/09 07:36:51;;;;;;;13.43;12.03;;;19.80;99.90;;;;;;4861932;29;20224;-88
2023/09/09 07:39:16;;;;;;;13.40;12.10;;;19.90;99.90;;;;;;4862739;29;20432;-88
2023/09/09 07:41:42;;;;;;;14.40;11.60;;;19.90;99.90;;;;;;4861950;29;20184;-88
2023/09/09 07:44:07;;;;;;;15.60;12.03;;;20.00;99.90;;;;;;4861424;29;20275;-88
2023/09/09 07:46:33;;;;;;;13.10;11.40;;;20.10;99.90;;;;;;4862780;29;20192;-88
2023/09/09 07:48:59;;;;;;;13.17;11.77;;;20.20;99.90;;;;;;4861916;29;20190;-88
2023/09/09 07:51:24;;;;;;;13.60;12.20;;;20.40;99.90;;;;;;4861558;29;20551;-88
2023/09/09 07:53:52;;;;;;;13.10;11.80;;;20.60;99.90;;;;;;4862897;29;20181;-88
2023/09/09 07:56:17;;;;;;;14.33;12.40;;;20.60;99.90;;;;;;4862698;29;20584;-88
2023/09/09 07:58:43;;;;;;;18.17;12.73;;;20.80;99.90;;;;;;4861686;29;20433;-88
2023/09/09 08:01:10;;;;;;;16.47;11.90;;;20.90;99.90;;;;;;4861680;29;20271;-87
2023/09/09 08:03:35;;;;;;;14.50;12.90;;;21.10;99.90;;;;;;4862833;29;20188;-88
2023/09/09 08:06:04;;;;;;;16.37;14.63;;;21.20;99.90;;;;;;4862291;29;20592;-87
2023/09/09 08:08:30;;;;;;;17.80;14.17;;;21.40;99.90;;;;;;4861226;29;20188;-88
2023/09/09 08:10:56;;;;;;;15.30;13.70;;;21.60;99.90;;;;;;4861378;29;20484;-88
2023/09/09 08:13:22;;;;;;;14.40;13.10;;;21.60;99.90;;;;;;4861131;29;20642;-87
2023/09/09 08:15:47;;;;;;;15.90;14.13;;;21.80;99.90;;;;;;4862905;29;20188;-87
2023/09/09 08:18:14;;;;;;;16.60;14.90;;;22.00;99.90;;;;;;4864545;29;20491;-87
2023/09/09 08:20:39;;;;;;;15.30;13.70;;;22.20;99.90;;;;;;4864244;29;20347;-87
2023/09/09 08:23:05;;;;;;;17.10;15.40;;;22.40;99.90;;;;;;4861777;29;20523;-87
2023/09/09 08:25:34;;;;;;;20.37;16.23;;;22.50;99.90;;;;;;4861153;29;20637;-87
2023/09/09 08:28:03;;;;;;;16.90;14.43;;;22.50;99.90;;;;;;4862300;29;20196;-87
2023/09/09 08:30:29;;;;;;;19.37;16.03;;;22.60;99.90;;;;;;4862019;29;20448;-87
2023/09/09 08:32:55;;;;;;;17.73;15.30;;;22.90;99.90;;;;;;4861039;29;20420;-87
2023/09/09 08:35:22;;;;;;;21.07;13.20;;;23.20;99.90;;;;;;4863093;29;20504;-86
2023/09/09 08:37:48;;;;;;;13.07;11.70;;;23.50;99.90;;;;;;4864065;29;20480;-87
2023/09/09 08:40:13;;;;;;;13.50;11.30;;;24.10;99.90;;;;;;4862580;29;20520;-86
2023/09/09 08:43:02;;;;;;;20.40;13.00;;;24.60;99.90;;;;;;4861523;29;20188;-87
2023/09/09 08:46:00;;;;;;;13.50;11.70;;;24.90;99.90;;;;;;4861864;29;20184;-88
2023/09/09 08:48:28;;;;;;;19.83;13.37;;;25.50;99.90;;;;;;4861514;29;20425;-87
2023/09/09 08:50:57;;;;;;;13.87;11.87;;;26.10;99.90;;;;;;4861504;29;20432;-87
2023/09/09 08:53:26;;;;;;;15.17;12.10;;;26.40;99.90;;;;;;4845299;29;20437;-87
2023/09/09 08:55:53;;;;;;;17.57;12.33;;;26.60;99.90;;;;;;4861519;29;20417;-87
2023/09/09 08:58:20;;;;;;;17.17;11.07;;;26.60;99.90;;;;;;4861270;29;20425;-87
2023/09/09 09:00:45;;;;;;;15.40;10.60;;;26.60;99.90;;;;;;4861309;29;20428;-87
2023/09/09 09:03:12;;;;;;;27.63;13.53;;;26.90;99.90;;;;;;4861454;29;20898;-87
2023/09/09 09:05:38;;;;;;;9.77;8.40;;;27.40;99.90;;;;;;4861233;29;20464;-87
2023/09/09 09:08:04;;;;;;;10.50;7.37;;;28.20;99.90;;;;;;4861455;29;20468;-87
2023/09/09 09:10:31;;;;;;;9.70;7.13;;;28.20;99.90;;;;;;4860365;29;20510;-87
2023/09/09 09:12:56;;;;;;;14.63;8.40;;;28.20;99.90;;;;;;4860967;29;20857;-86
2023/09/09 09:15:23;;;;;;;7.90;6.17;;;26.80;99.90;;;;;;4860924;29;20439;-86
2023/09/09 09:17:49;;;;;;;9.03;6.53;;;27.20;99.90;;;;;;4859915;29;20212;-87
2023/09/09 09:20:26;;;;;;;8.57;7.10;;;27.40;99.90;;;;;;4861033;29;20429;-86
2023/09/09 09:22:56;;;;;;;8.03;5.73;;;27.90;99.90;;;;;;4861209;29;20409;-86
2023/09/09 09:25:21;;;;;;;10.27;7.20;;;28.50;99.90;;;;;;4845034;29;20452;-86
2023/09/09 09:27:47;;;;;;;9.80;6.60;;;28.00;99.90;;;;;;4859978;29;20428;-87
2023/09/09 09:30:13;;;;;;;12.30;6.17;;;28.30;99.90;;;;;;4863663;29;20184;-86
2023/09/09 09:32:42;;;;;;;15.23;5.73;;;28.50;99.90;;;;;;4863076;29;20188;-86
2023/09/09 09:35:28;;;;;;;13.43;6.77;;;29.00;99.90;;;;;;4860811;29;20722;-86
2023/09/09 09:38:14;;;;;;;6.67;5.30;;;29.10;99.90;;;;;;4860926;29;20483;-86
2023/09/09 09:40:41;;;;;;;11.73;6.10;;;30.00;99.90;;;;;;4861505;29;20489;-86
2023/09/09 09:43:20;;;;;;;11.13;5.80;;;30.70;99.90;;;;;;4861165;29;20456;-87
2023/09/09 09:45:46;;;;;;;9.27;6.17;;;29.70;99.90;;;;;;4860704;29;20704;-86
2023/09/09 09:48:25;;;;;;;12.50;6.27;;;29.70;99.90;;;;;;4860898;29;20444;-87
2023/09/09 09:50:52;;;;;;;12.53;5.70;;;30.10;99.90;;;;;;4860969;29;20405;-87
2023/09/09 09:53:18;;;;;;;8.77;5.67;;;30.30;99.90;;;;;;4860576;29;20423;-87
2023/09/09 09:55:45;;;;;;;9.17;6.30;;;30.50;99.90;;;;;;4863830;29;20910;-87
2023/09/09 09:58:13;;;;;;;14.03;6.20;;;31.30;99.90;;;;;;4864498;29;20219;-87
2023/09/09 10:00:39;;;;;;;10.83;5.70;;;30.90;99.90;;;;;;4864221;29;20497;-86
2023/09/09 10:03:06;;;;;;;15.37;5.13;;;31.10;99.90;;;;;;4864306;29;20421;-86
2023/09/09 10:05:34;;;;;;;15.63;5.43;;;31.30;99.90;;;;;;4864089;29;20585;-86
2023/09/09 10:08:19;;;;;;;11.13;4.97;;;31.30;99.90;;;;;;4864147;29;20429;-87
2023/09/09 10:11:01;;;;;;;14.47;5.80;;;31.60;99.90;;;;;;4864478;29;20424;-87
2023/09/09 10:13:38;;;;;;;12.23;5.00;;;31.90;99.90;;;;;;4863964;29;20408;-87
2023/09/09 10:16:06;;;;;;;11.67;5.50;;;32.40;99.90;;;;;;4864123;29;20826;-87
2023/09/09 10:18:32;;;;;;;9.77;5.07;;;32.80;99.90;;;;;;4862713;29;20436;-87
2023/09/09 10:20:59;;;;;;;11.10;4.70;;;33.30;99.90;;;;;;4864400;29;20413;-86
2023/09/09 10:23:27;;;;;;;16.60;5.50;;;33.00;99.90;;;;;;4863939;29;20213;-86
2023/09/09 10:25:53;;;;;;;10.67;4.77;;;33.50;99.90;;;;;;4863887;29;20520;-87
2023/09/09 10:28:21;;;;;;;18.03;5.00;;;33.80;99.90;;;;;;4863676;29;20432;-86
2023/09/09 10:30:50;;;;;;;9.57;5.50;;;33.00;99.90;;;;;;4863888;29;20424;-86
2023/09/09 10:33:18;;;;;;;10.50;4.97;;;33.00;99.90;;;;;;4867487;29;20421;-86
2023/09/09 10:35:45;;;;;;;12.33;5.90;;;33.50;99.90;;;;;;4864370;29;20424;-86
2023/09/09 10:38:14;;;;;;;10.43;5.70;;;32.90;99.90;;;;;;4863122;29;20480;-87
2023/09/09 10:40:40;;;;;;;13.40;4.77;;;32.30;99.90;;;;;;4863794;29;20420;-86
2023/09/09 10:43:06;;;;;;;14.83;6.10;;;31.90;99.90;;;;;;4863569;29;20428;-87
2023/09/09 10:45:39;;;;;;;14.67;5.73;;;32.20;99.90;;;;;;4863722;29;20425;-86
2023/09/09 10:48:07;;;;;;;12.60;5.33;;;32.60;99.90;;;;;;4863822;29;20184;-86
2023/09/09 10:50:47;;;;;;;11.70;4.93;;;32.20;99.90;;;;;;4863417;29;20478;-86
2023/09/09 10:53:28;;;;;;;8.90;4.70;;;32.80;99.90;;;;;;4863621;29;21036;-86
2023/09/09 10:55:55;;;;;;;13.70;5.40;;;33.00;99.90;;;;;;4863681;29;20416;-87
2023/09/09 10:58:34;;;;;;;12.97;5.20;;;33.20;99.90;;;;;;4863381;29;20449;-86
2023/09/09 11:01:00;;;;;;;10.47;4.50;;;33.60;99.90;;;;;;4863305;29;20408;-86
2023/09/09 11:03:39;;;;;;;12.33;4.60;;;33.30;99.90;;;;;;4861951;29;20421;-86
2023/09/09 11:06:07;;;;;;;10.10;5.23;;;33.00;99.90;;;;;;4862829;29;20238;-86
2023/09/09 11:08:41;;;;;;;8.57;5.07;;;33.00;99.90;;;;;;4862813;29;20447;-86
2023/09/09 11:11:12;;;;;;;12.50;5.00;;;32.60;99.90;;;;;;4863615;29;20429;-86
2023/09/09 11:13:52;;;;;;;10.87;5.00;;;33.10;99.90;;;;;;4863016;29;20820;-86
2023/09/09 11:16:23;;;;;;;10.80;4.23;;;32.50;99.90;;;;;;4863105;29;20495;-86
2023/09/09 11:18:51;;;;;;;12.07;4.10;;;32.60;99.90;;;;;;4863050;29;20428;-86
2023/09/09 11:21:20;;;;;;;19.50;4.90;;;33.20;99.90;;;;;;4863328;29;20515;-86
2023/09/09 11:23:47;;;;;;;13.07;4.20;;;32.70;99.90;;;;;;4862993;29;20910;-86
2023/09/09 11:26:14;;;;;;;7.40;4.17;;;32.90;99.90;;;;;;4863203;29;20431;-86
2023/09/09 11:28:41;;;;;;;11.03;4.10;;;33.60;99.90;;;;;;4861739;29;20417;-86
2023/09/09 11:31:13;;;;;;;7.60;4.30;;;33.80;99.90;;;;;;4846126;29;20767;-86
2023/09/09 11:33:39;;;;;;;12.37;3.80;;;33.40;99.90;;;;;;4845973;29;20433;-86
2023/09/09 11:36:05;;;;;;;8.40;4.33;;;33.40;99.90;;;;;;4862738;29;20429;-88
2023/09/09 11:38:32;;;;;;;8.30;4.50;;;33.60;99.90;;;;;;4862645;29;20220;-87
2023/09/09 11:40:58;;;;;;;8.57;4.57;;;34.10;99.90;;;;;;4861454;29;20539;-86
2023/09/09 11:43:23;;;;;;;13.00;4.70;;;33.80;99.90;;;;;;4862462;29;20448;-87
2023/09/09 11:45:51;;;;;;;9.80;3.87;;;33.90;99.90;;;;;;4862515;29;20204;-86
2023/09/09 11:48:16;;;;;;;9.60;3.67;;;34.40;99.90;;;;;;4862688;29;20184;-86
2023/09/09 11:50:44;;;;;;;11.90;4.63;;;34.80;99.90;;;;;;4861628;29;20912;-86
2023/09/09 11:53:13;;;;;;;11.10;4.60;;;34.50;99.90;;;;;;4862517;29;20196;-86
2023/09/09 11:55:39;;;;;;;11.10;4.13;;;34.20;99.90;;;;;;4862155;29;20424;-87
2023/09/09 11:58:07;;;;;;;7.77;4.50;;;34.10;99.90;;;;;;4862286;29;20845;-87
2023/09/09 12:00:33;;;;;;;8.10;4.73;;;34.00;99.90;;;;;;4862045;29;20672;-86
2023/09/09 12:02:59;;;;;;;10.27;4.67;;;33.90;99.90;;;;;;4862365;29;20417;-86
2023/09/09 12:05:30;;;;;;;6.10;3.70;;;33.80;99.90;;;;;;4862286;29;20232;-88
2023/09/09 12:07:59;;;;;;;11.50;4.17;;;34.20;99.90;;;;;;4860783;29;20432;-84
2023/09/09 12:10:30;;;;;;;9.23;4.60;;;34.70;99.90;;;;;;4861791;29;20421;-86
2023/09/09 12:12:56;;;;;;;11.10;4.30;;;34.80;99.90;;;;;;4862074;29;20429;-86
2023/09/09 12:15:23;;;;;;;8.57;4.03;;;34.20;99.90;;;;;;4861936;29;20782;-87
2023/09/09 12:17:49;;;;;;;10.73;4.60;;;34.30;99.90;;;;;;4861690;29;20472;-86
2023/09/09 12:20:14;;;;;;;11.37;4.53;;;34.50;99.90;;;;;;4862061;29;20487;-88
2023/09/09 12:22:47;;;;;;;8.00;3.80;;;35.20;99.90;;;;;;4861631;29;20180;-84
2023/09/09 12:25:33;;;;;;;8.00;3.60;;;35.30;99.90;;;;;;4860625;29;20641;-85
2023/09/09 12:27:59;;;;;;;14.10;4.47;;;35.90;99.90;;;;;;4862209;29;20440;-85
2023/09/09 12:30:40;;;;;;;8.03;4.80;;;35.90;99.90;;;;;;4862002;29;20516;-85